sensor_id;sensor_type;location;lat;lon;timestamp;P1;durP1;ratioP1;P2;durP2;ratioP2
57093;SDS011;42970;50.996;3.706;2023-07-29T09:58:39;3.10;;;2.47;;
57093;SDS011;42970;50.996;3.706;2023-07-29T10:01:07;7.05;;;2.30;;
57093;SDS011;42970;50.996;3.706;2023-07-29T10:03:33;3.35;;;2.22;;
57093;SDS011;42970;50.996;3.706;2023-07-29T10:06:02;3.30;;;1.95;;
57093;SDS011;42970;50.996;3.706;2023-07-29T10:08:29;6.20;;;2.40;;
57093;SDS011;42970;50.996;3.706;2023-07-29T10:10:59;3.60;;;2.10;;
57093;SDS011;42970;50.996;3.706;2023-07-29T10:13:24;2.20;;;1.83;;
57093;SDS011;42970;50.996;3.706;2023-07-29T10:15:51;4.37;;;2.20;;
57093;SDS011;42970;50.996;3.706;2023-07-29T10:18:18;5.50;;;2.80;;
57093;SDS011;42970;50.996;3.706;2023-07-29T10:20:44;5.63;;;2.40;;
57093;SDS011;42970;50.996;3.706;2023-07-29T10:23:12;4.47;;;2.53;;
57093;SDS011;42970;50.996;3.706;2023-07-29T10:25:46;4.10;;;2.70;;
57093;SDS011;42970;50.996;3.706;2023-07-29T10:28:15;5.05;;;2.30;;
57093;SDS011;42970;50.996;3.706;2023-07-29T10:30:43;3.13;;;2.27;;
57093;SDS011;42970;50.996;3.706;2023-07-29T10:33:09;8.20;;;2.80;;
57093;SDS011;42970;50.996;3.706;2023-07-29T10:35:35;5.50;;;2.80;;
57093;SDS011;42970;50.996;3.706;2023-07-29T12:31:37;7.05;;;1.40;;
57093;SDS011;42970;50.996;3.706;2023-07-29T12:34:02;1.42;;;1.33;;
57093;SDS011;42970;50.996;3.706;2023-07-29T12:36:44;1.40;;;1.30;;
57093;SDS011;42970;50.996;3.706;2023-07-29T12:39:20;2.35;;;1.35;;
57093;SDS011;42970;50.996;3.706;2023-07-29T13:15:50;1.30;;;1.10;;
57093;SDS011;42970;50.996;3.706;2023-07-29T13:20:41;3.70;;;1.30;;
57093;SDS011;42970;50.996;3.706;2023-07-29T13:23:06;1.80;;;1.60;;
57093;SDS011;42970;50.996;3.706;2023-07-29T13:27:57;1.73;;;1.30;;
57093;SDS011;42970;50.996;3.706;2023-07-29T13:30:22;3.47;;;1.30;;
57093;SDS011;42970;50.996;3.706;2023-07-29T13:32:48;3.45;;;1.50;;
57093;SDS011;42970;50.996;3.706;2023-07-29T14:11:36;1.00;;;0.95;;
57093;SDS011;42970;50.996;3.706;2023-07-29T14:28:35;1.20;;;1.10;;
57093;SDS011;42970;50.996;3.706;2023-07-29T14:31:01;2.67;;;1.15;;
57093;SDS011;42970;50.996;3.706;2023-07-29T14:43:08;1.10;;;1.00;;
57093;SDS011;42970;50.996;3.706;2023-07-29T14:45:33;3.20;;;1.10;;
57093;SDS011;42970;50.996;3.706;2023-07-29T14:57:39;4.25;;;1.20;;
57093;SDS011;42970;50.996;3.706;2023-07-29T15:00:06;1.98;;;0.98;;
57093;SDS011;42970;50.996;3.706;2023-07-29T15:02:32;3.80;;;1.00;;
57093;SDS011;42970;50.996;3.706;2023-07-29T15:04:58;1.80;;;1.00;;
57093;SDS011;42970;50.996;3.706;2023-07-29T15:07:23;1.05;;;0.82;;
57093;SDS011;42970;50.996;3.706;2023-07-29T15:12:14;1.08;;;0.90;;
57093;SDS011;42970;50.996;3.706;2023-07-29T15:14:39;2.92;;;1.33;;
57093;SDS011;42970;50.996;3.706;2023-07-29T15:17:05;0.90;;;0.77;;
57093;SDS011;42970;50.996;3.706;2023-07-29T15:19:31;2.33;;;0.80;;
57093;SDS011;42970;50.996;3.706;2023-07-29T15:21:57;1.20;;;1.10;;
57093;SDS011;42970;50.996;3.706;2023-07-29T15:24:22;1.77;;;0.98;;
57093;SDS011;42970;50.996;3.706;2023-07-29T15:26:47;3.58;;;1.10;;
57093;SDS011;42970;50.996;3.706;2023-07-29T15:29:13;1.42;;;1.05;;
57093;SDS011;42970;50.996;3.706;2023-07-29T15:31:39;4.70;;;1.10;;
57093;SDS011;42970;50.996;3.706;2023-07-29T15:34:06;3.63;;;1.00;;
57093;SDS011;42970;50.996;3.706;2023-07-29T15:36:31;3.85;;;1.15;;
57093;SDS011;42970;50.996;3.706;2023-07-29T15:38:57;1.52;;;0.90;;
57093;SDS011;42970;50.996;3.706;2023-07-29T15:41:22;2.58;;;1.48;;
57093;SDS011;42970;50.996;3.706;2023-07-29T15:43:48;2.17;;;0.93;;
57093;SDS011;42970;50.996;3.706;2023-07-29T15:46:14;5.10;;;1.17;;
57093;SDS011;42970;50.996;3.706;2023-07-29T15:48:39;1.95;;;1.20;;
57093;SDS011;42970;50.996;3.706;2023-07-29T15:51:04;3.38;;;1.10;;
57093;SDS011;42970;50.996;3.706;2023-07-29T16:05:38;5.25;;;1.73;;
57093;SDS011;42970;50.996;3.706;2023-07-29T16:08:04;3.53;;;1.40;;
57093;SDS011;42970;50.996;3.706;2023-07-29T16:10:29;5.15;;;1.73;;
57093;SDS011;42970;50.996;3.706;2023-07-29T16:12:55;3.75;;;1.83;;
57093;SDS011;42970;50.996;3.706;2023-07-29T16:15:20;2.83;;;1.50;;
57093;SDS011;42970;50.996;3.706;2023-07-29T16:17:46;6.78;;;2.10;;
57093;SDS011;42970;50.996;3.706;2023-07-29T16:20:14;10.00;;;1.98;;
57093;SDS011;42970;50.996;3.706;2023-07-29T16:22:40;1.95;;;1.45;;
57093;SDS011;42970;50.996;3.706;2023-07-29T16:25:05;5.63;;;1.63;;
57093;SDS011;42970;50.996;3.706;2023-07-29T16:27:31;12.43;;;1.92;;
57093;SDS011;42970;50.996;3.706;2023-07-29T16:29:57;3.38;;;1.33;;
57093;SDS011;42970;50.996;3.706;2023-07-29T16:32:24;5.13;;;1.70;;
57093;SDS011;42970;50.996;3.706;2023-07-29T16:34:49;4.72;;;1.73;;
57093;SDS011;42970;50.996;3.706;2023-07-29T16:37:15;5.95;;;2.10;;
57093;SDS011;42970;50.996;3.706;2023-07-29T16:39:40;6.93;;;1.70;;
57093;SDS011;42970;50.996;3.706;2023-07-29T16:42:05;3.05;;;1.40;;
57093;SDS011;42970;50.996;3.706;2023-07-29T16:44:31;4.13;;;1.80;;
57093;SDS011;42970;50.996;3.706;2023-07-29T16:46:57;4.10;;;1.70;;
57093;SDS011;42970;50.996;3.706;2023-07-29T16:49:22;5.60;;;2.10;;
57093;SDS011;42970;50.996;3.706;2023-07-29T16:51:48;4.57;;;1.90;;
57093;SDS011;42970;50.996;3.706;2023-07-29T16:54:15;6.80;;;1.67;;
57093;SDS011;42970;50.996;3.706;2023-07-29T16:56:43;6.43;;;1.70;;
57093;SDS011;42970;50.996;3.706;2023-07-29T16:59:10;6.70;;;2.63;;
57093;SDS011;42970;50.996;3.706;2023-07-29T17:01:35;4.35;;;1.63;;
57093;SDS011;42970;50.996;3.706;2023-07-29T17:04:01;7.50;;;1.20;;
57093;SDS011;42970;50.996;3.706;2023-07-29T17:11:17;6.35;;;2.00;;
57093;SDS011;42970;50.996;3.706;2023-07-29T17:13:43;3.67;;;1.30;;
57093;SDS011;42970;50.996;3.706;2023-07-29T17:16:08;2.38;;;1.50;;
57093;SDS011;42970;50.996;3.706;2023-07-29T18:38:36;1.95;;;1.30;;
57093;SDS011;42970;50.996;3.706;2023-07-29T18:41:02;8.27;;;2.17;;
57093;SDS011;42970;50.996;3.706;2023-07-29T18:43:27;6.63;;;1.38;;
57093;SDS011;42970;50.996;3.706;2023-07-29T18:48:20;4.45;;;1.55;;
57093;SDS011;42970;50.996;3.706;2023-07-29T18:50:45;7.20;;;1.83;;
57093;SDS011;42970;50.996;3.706;2023-07-29T18:53:11;3.63;;;1.50;;
57093;SDS011;42970;50.996;3.706;2023-07-29T18:55:36;4.75;;;1.20;;
57093;SDS011;42970;50.996;3.706;2023-07-29T18:58:03;9.90;;;1.63;;
57093;SDS011;42970;50.996;3.706;2023-07-29T19:00:28;5.95;;;2.00;;
57093;SDS011;42970;50.996;3.706;2023-07-29T19:02:54;4.78;;;1.00;;
57093;SDS011;42970;50.996;3.706;2023-07-29T19:29:37;6.82;;;1.42;;
57093;SDS011;42970;50.996;3.706;2023-07-29T19:32:03;4.47;;;1.50;;
57093;SDS011;42970;50.996;3.706;2023-07-29T19:34:29;6.75;;;1.80;;
57093;SDS011;42970;50.996;3.706;2023-07-29T19:36:55;7.72;;;1.88;;
57093;SDS011;42970;50.996;3.706;2023-07-29T19:39:20;5.28;;;1.88;;
57093;SDS011;42970;50.996;3.706;2023-07-29T19:41:46;9.27;;;2.20;;
57093;SDS011;42970;50.996;3.706;2023-07-29T19:44:13;6.18;;;1.63;;
57093;SDS011;42970;50.996;3.706;2023-07-29T19:46:38;4.70;;;2.10;;
57093;SDS011;42970;50.996;3.706;2023-07-29T19:49:03;8.43;;;1.80;;
57093;SDS011;42970;50.996;3.706;2023-07-29T19:51:29;9.02;;;1.85;;
57093;SDS011;42970;50.996;3.706;2023-07-29T19:53:55;4.38;;;1.40;;
57093;SDS011;42970;50.996;3.706;2023-07-29T19:56:21;3.28;;;1.38;;
57093;SDS011;42970;50.996;3.706;2023-07-29T19:58:46;7.32;;;1.60;;
57093;SDS011;42970;50.996;3.706;2023-07-29T20:01:14;6.72;;;1.73;;
57093;SDS011;42970;50.996;3.706;2023-07-29T20:03:40;7.85;;;1.77;;
57093;SDS011;42970;50.996;3.706;2023-07-29T20:06:05;2.90;;;1.70;;
57093;SDS011;42970;50.996;3.706;2023-07-29T20:08:31;7.28;;;1.80;;
57093;SDS011;42970;50.996;3.706;2023-07-29T20:10:57;3.97;;;1.52;;
57093;SDS011;42970;50.996;3.706;2023-07-29T20:13:22;23.55;;;2.20;;
57093;SDS011;42970;50.996;3.706;2023-07-29T20:15:52;5.13;;;1.77;;
57093;SDS011;42970;50.996;3.706;2023-07-29T20:18:18;3.95;;;1.67;;
57093;SDS011;42970;50.996;3.706;2023-07-29T20:20:44;9.45;;;1.90;;
57093;SDS011;42970;50.996;3.706;2023-07-29T20:23:10;3.95;;;1.30;;
57093;SDS011;42970;50.996;3.706;2023-07-29T20:25:35;6.13;;;1.70;;
57093;SDS011;42970;50.996;3.706;2023-07-29T20:28:01;6.30;;;1.90;;
57093;SDS011;42970;50.996;3.706;2023-07-29T20:30:26;10.93;;;1.65;;
57093;SDS011;42970;50.996;3.706;2023-07-29T20:32:55;5.95;;;1.42;;
57093;SDS011;42970;50.996;3.706;2023-07-29T20:35:21;4.57;;;1.40;;
57093;SDS011;42970;50.996;3.706;2023-07-29T20:37:46;5.72;;;1.73;;
57093;SDS011;42970;50.996;3.706;2023-07-29T20:40:11;6.68;;;1.58;;
57093;SDS011;42970;50.996;3.706;2023-07-29T20:42:37;6.78;;;2.20;;
57093;SDS011;42970;50.996;3.706;2023-07-29T20:45:02;4.20;;;1.70;;
57093;SDS011;42970;50.996;3.706;2023-07-29T20:54:50;9.63;;;2.28;;
57093;SDS011;42970;50.996;3.706;2023-07-29T20:57:15;10.60;;;2.47;;
57093;SDS011;42970;50.996;3.706;2023-07-29T20:59:41;8.50;;;2.05;;
57093;SDS011;42970;50.996;3.706;2023-07-29T21:02:07;9.38;;;2.20;;
57093;SDS011;42970;50.996;3.706;2023-07-29T21:04:32;5.03;;;2.40;;
57093;SDS011;42970;50.996;3.706;2023-07-29T21:06:58;12.40;;;2.40;;
57093;SDS011;42970;50.996;3.706;2023-07-29T21:09:24;6.22;;;2.10;;
57093;SDS011;42970;50.996;3.706;2023-07-29T21:11:49;7.38;;;2.22;;
57093;SDS011;42970;50.996;3.706;2023-07-29T21:14:16;5.43;;;2.50;;
57093;SDS011;42970;50.996;3.706;2023-07-29T21:16:42;5.40;;;2.35;;
57093;SDS011;42970;50.996;3.706;2023-07-29T21:19:07;9.07;;;2.08;;
57093;SDS011;42970;50.996;3.706;2023-07-29T21:21:33;7.63;;;2.28;;
57093;SDS011;42970;50.996;3.706;2023-07-29T21:23:59;12.70;;;2.85;;
57093;SDS011;42970;50.996;3.706;2023-07-29T21:26:24;17.67;;;3.22;;
57093;SDS011;42970;50.996;3.706;2023-07-29T21:28:50;10.05;;;2.75;;
57093;SDS011;42970;50.996;3.706;2023-07-29T21:31:15;11.88;;;2.33;;
57093;SDS011;42970;50.996;3.706;2023-07-29T21:33:41;7.78;;;2.17;;
57093;SDS011;42970;50.996;3.706;2023-07-29T21:36:06;9.90;;;2.38;;
57093;SDS011;42970;50.996;3.706;2023-07-29T21:38:31;8.10;;;2.30;;
57093;SDS011;42970;50.996;3.706;2023-07-29T21:40:57;9.45;;;3.10;;
57093;SDS011;42970;50.996;3.706;2023-07-29T21:43:22;5.93;;;2.33;;
57093;SDS011;42970;50.996;3.706;2023-07-29T22:00:21;6.47;;;2.60;;
57093;SDS011;42970;50.996;3.706;2023-07-29T22:02:47;10.57;;;2.83;;
57093;SDS011;42970;50.996;3.706;2023-07-29T22:07:38;10.52;;;2.65;;
